createdAt,value
2022-10-23T00:00:43.959Z,101454.47
2022-10-23T00:03:10.477Z,101461.41
2022-10-23T00:05:40.773Z,101467.28
2022-10-23T00:08:07.982Z,101463.63
2022-10-23T00:10:34.569Z,101464.78
2022-10-23T00:13:01.046Z,101462.75
2022-10-23T00:15:27.503Z,101458.53
2022-10-23T00:17:54.251Z,101459.34
2022-10-23T00:20:21.803Z,101468.91
2022-10-23T00:22:48.265Z,101473.53
2022-10-23T00:25:16.347Z,101469.00
2022-10-23T00:27:43.354Z,101469.94
2022-10-23T00:30:10.962Z,101467.44
2022-10-23T00:32:38.150Z,101459.03
2022-10-23T00:35:05.167Z,101460.53
2022-10-23T00:37:31.678Z,101462.63
2022-10-23T00:39:58.091Z,101454.47
2022-10-23T00:42:24.654Z,101453.53
2022-10-23T00:44:51.040Z,101448.22
2022-10-23T00:47:17.988Z,101454.66
2022-10-23T00:49:44.443Z,101457.38
2022-10-23T00:52:13.359Z,101455.13
2022-10-23T00:54:43.234Z,101459.06
2022-10-23T00:57:14.813Z,101460.28
2022-10-23T00:59:41.460Z,101456.53
2022-10-23T01:02:08.614Z,101456.19
2022-10-23T01:04:36.079Z,101451.53
2022-10-23T01:07:11.963Z,101451.97
2022-10-23T01:09:55.763Z,101454.25
2022-10-23T01:12:54.473Z,101452.69
2022-10-23T01:15:31.083Z,101454.59
2022-10-23T01:18:11.795Z,101450.38
2022-10-23T01:20:40.915Z,101452.44
2022-10-23T01:23:36.830Z,101444.16
2022-10-23T01:26:22.792Z,101444.16
2022-10-23T01:28:59.828Z,101443.78
2022-10-23T01:31:38.335Z,101441.44
2022-10-23T01:34:19.185Z,101427.00
2022-10-23T01:36:49.066Z,101432.25
2022-10-23T01:39:22.203Z,101432.53
2022-10-23T01:42:21.744Z,101433.31
2022-10-23T01:45:03.147Z,101436.47
2022-10-23T01:47:32.890Z,101432.19
2022-10-23T01:50:01.693Z,101431.16
2022-10-23T01:52:28.326Z,101420.94
2022-10-23T01:54:59.555Z,101412.06
2022-10-23T01:57:29.310Z,101415.69
2022-10-23T01:59:59.914Z,101410.16
2022-10-23T02:02:28.468Z,101403.91
2022-10-23T02:05:14.349Z,101404.69
2022-10-23T02:07:41.032Z,101400.50
2022-10-23T02:10:09.694Z,101398.03
2022-10-23T02:13:09.058Z,101396.53
2022-10-23T02:15:46.650Z,101388.16
2022-10-23T02:18:39.088Z,101384.78
2022-10-23T02:21:05.460Z,101388.09
2022-10-23T02:23:59.430Z,101371.81
2022-10-23T02:26:37.962Z,101375.53
2022-10-23T02:29:17.117Z,101371.66
2022-10-23T02:31:43.823Z,101361.25
2022-10-23T02:34:10.294Z,101368.28
2022-10-23T02:36:37.496Z,101360.09
2022-10-23T02:39:04.952Z,101367.16
2022-10-23T02:41:36.298Z,101359.19
2022-10-23T02:44:21.419Z,101362.63
2022-10-23T02:47:12.613Z,101364.00
2022-10-23T02:49:58.422Z,101364.81
2022-10-23T02:52:35.506Z,101369.91
2022-10-23T02:55:24.541Z,101376.94
2022-10-23T02:57:56.780Z,101367.88
2022-10-23T03:00:24.292Z,101361.22
2022-10-23T03:03:06.581Z,101358.47
2022-10-23T03:05:38.111Z,101347.94
2022-10-23T03:08:08.227Z,101341.78
2022-10-23T03:10:35.225Z,101332.13
2022-10-23T03:13:02.201Z,101342.66
2022-10-23T03:15:28.618Z,101333.38
2022-10-23T03:17:55.293Z,101334.16
2022-10-23T03:20:21.732Z,101336.19
2022-10-23T03:22:48.195Z,101326.44
2022-10-23T03:25:14.886Z,101324.41
2022-10-23T03:27:41.334Z,101318.50
2022-10-23T03:30:08.600Z,101311.75
2022-10-23T03:32:35.028Z,101307.41
2022-10-23T03:35:01.557Z,101310.59
2022-10-23T03:37:28.082Z,101304.81
2022-10-23T03:39:54.570Z,101297.44
2022-10-23T03:42:20.977Z,101304.53
2022-10-23T03:44:47.508Z,101292.97
2022-10-23T03:47:14.059Z,101296.13
2022-10-23T03:49:40.539Z,101290.31
2022-10-23T03:52:08.047Z,101297.25
2022-10-23T03:54:35.051Z,101287.94
2022-10-23T03:57:02.099Z,101285.94
2022-10-23T03:59:28.621Z,101278.00
2022-10-23T04:01:55.468Z,101274.75
2022-10-23T04:04:22.008Z,101270.78
2022-10-23T04:06:48.520Z,101264.56
2022-10-23T04:09:15.248Z,101260.81
2022-10-23T04:11:41.676Z,101258.22
2022-10-23T04:14:08.182Z,101253.69
2022-10-23T04:16:34.618Z,101246.72
2022-10-23T04:19:01.050Z,101240.59
2022-10-23T04:21:27.488Z,101246.47
2022-10-23T04:23:53.993Z,101245.69
2022-10-23T04:26:20.451Z,101240.25
2022-10-23T04:28:46.967Z,101239.56
2022-10-23T04:31:13.411Z,101235.31
2022-10-23T04:33:39.986Z,101241.91
2022-10-23T04:36:06.768Z,101237.00
2022-10-23T04:38:33.250Z,101237.88
2022-10-23T04:40:59.682Z,101230.94
2022-10-23T04:43:26.157Z,101226.63
2022-10-23T04:45:52.566Z,101221.25
2022-10-23T04:48:19.101Z,101216.59
2022-10-23T04:50:54.824Z,101215.03
2022-10-23T04:53:21.252Z,101215.81
2022-10-23T04:55:53.170Z,101205.78
2022-10-23T04:58:20.301Z,101212.47
2022-10-23T05:00:47.693Z,101207.00
2022-10-23T05:03:14.248Z,101207.81
2022-10-23T05:05:41.273Z,101204.34
2022-10-23T05:08:08.029Z,101203.22
2022-10-23T05:10:34.715Z,101203.63
2022-10-23T05:13:01.758Z,101207.59
2022-10-23T05:15:28.449Z,101211.19
2022-10-23T05:17:59.060Z,101209.69
2022-10-23T05:20:28.477Z,101207.41
2022-10-23T05:22:59.202Z,101207.03
2022-10-23T05:25:26.454Z,101209.34
2022-10-23T05:27:52.903Z,101206.69
2022-10-23T05:30:19.340Z,101205.53
2022-10-23T05:32:46.254Z,101212.13
2022-10-23T05:35:18.137Z,101202.38
2022-10-23T05:37:47.015Z,101206.31
2022-10-23T05:40:13.606Z,101206.69
2022-10-23T05:42:41.655Z,101203.59
2022-10-23T05:45:08.951Z,101196.94
2022-10-23T05:47:35.647Z,101188.75
2022-10-23T05:50:02.130Z,101187.19
2022-10-23T05:52:28.581Z,101185.59
2022-10-23T05:54:55.002Z,101185.59
2022-10-23T05:57:21.496Z,101191.13
2022-10-23T05:59:47.942Z,101188.41
2022-10-23T06:02:14.461Z,101185.66
2022-10-23T06:04:40.961Z,101177.50
2022-10-23T06:07:07.433Z,101183.38
2022-10-23T06:09:33.881Z,101174.03
2022-10-23T06:12:02.227Z,101172.47
2022-10-23T06:14:29.031Z,101174.03
2022-10-23T06:16:55.525Z,101170.53
2022-10-23T06:19:21.991Z,101153.38
2022-10-23T06:21:48.458Z,101150.66
2022-10-23T06:24:14.941Z,101150.66
2022-10-23T06:26:41.376Z,101151.09
2022-10-23T06:29:07.861Z,101152.69
2022-10-23T06:31:34.473Z,101149.97
2022-10-23T06:34:00.945Z,101152.69
2022-10-23T06:36:27.608Z,101151.97
2022-10-23T06:38:56.228Z,101143.06
2022-10-23T06:41:23.193Z,101147.03
2022-10-23T06:43:51.599Z,101145.09
2022-10-23T06:46:19.207Z,101138.38
2022-10-23T06:48:45.687Z,101134.09
2022-10-23T06:51:14.595Z,101129.00
2022-10-23T06:53:41.326Z,101120.44
2022-10-23T06:56:08.442Z,101115.00
2022-10-23T06:58:36.975Z,101116.25
2022-10-23T07:01:06.290Z,101120.53
2022-10-23T07:03:34.571Z,101128.78
2022-10-23T07:06:02.162Z,101123.41
2022-10-23T07:08:29.208Z,101121.09
2022-10-23T07:10:55.680Z,101128.50
2022-10-23T07:13:22.786Z,101133.59
2022-10-23T07:15:49.279Z,101121.94
2022-10-23T07:18:16.909Z,101130.13
2022-10-23T07:20:43.771Z,101125.47
2022-10-23T07:23:12.347Z,101132.94
2022-10-23T07:25:38.778Z,101125.19
2022-10-23T07:28:05.382Z,101119.00
2022-10-23T07:30:31.878Z,101117.47
2022-10-23T07:32:58.696Z,101109.38
2022-10-23T07:35:25.190Z,101110.59
2022-10-23T07:37:51.596Z,101122.38
2022-10-23T07:40:18.827Z,101123.94
2022-10-23T07:42:45.326Z,101113.81
2022-10-23T07:45:12.518Z,101109.56
2022-10-23T07:47:38.999Z,101106.47
2022-10-23T07:50:05.918Z,101100.22
2022-10-23T07:52:35.819Z,101098.72
2022-10-23T07:55:02.863Z,101103.81
2022-10-23T07:57:29.277Z,101094.91
2022-10-23T07:59:55.777Z,101093.75
2022-10-23T08:02:22.280Z,101096.56
2022-10-23T08:04:49.695Z,101099.34
2022-10-23T08:07:16.168Z,101086.88
2022-10-23T08:09:42.726Z,101078.34
2022-10-23T08:12:09.613Z,101083.88
2022-10-23T08:14:36.077Z,101078.81
2022-10-23T08:17:03.207Z,101084.38
2022-10-23T08:19:29.813Z,101085.53
2022-10-23T08:21:57.292Z,101085.16
2022-10-23T08:24:23.831Z,101083.66
2022-10-23T08:26:50.666Z,101089.53
2022-10-23T08:29:17.106Z,101081.75
2022-10-23T08:31:43.699Z,101066.59
2022-10-23T08:34:10.122Z,101062.72
2022-10-23T08:36:39.143Z,101061.94
2022-10-23T08:39:05.994Z,101061.19
2022-10-23T08:41:36.262Z,101057.34
2022-10-23T08:44:10.148Z,101051.59
2022-10-23T08:46:44.633Z,101055.13
2022-10-23T08:49:20.574Z,101047.00
2022-10-23T08:51:51.813Z,101045.47
2022-10-23T08:54:28.665Z,101046.28
2022-10-23T08:57:03.579Z,101042.84
2022-10-23T08:59:39.574Z,101038.66
2022-10-23T09:02:17.194Z,101033.28
2022-10-23T09:04:48.052Z,101027.09
2022-10-23T09:07:32.266Z,101025.53
2022-10-23T09:10:36.391Z,101023.28
2022-10-23T09:13:24.143Z,101016.25
2022-10-23T09:16:14.671Z,101022.06
2022-10-23T09:18:42.421Z,101015.03
2022-10-23T09:21:09.896Z,101013.09
2022-10-23T09:23:36.773Z,101008.41
2022-10-23T09:26:12.394Z,101010.03
2022-10-23T09:28:51.042Z,101017.47
2022-10-23T09:31:19.219Z,101012.00
2022-10-23T09:33:57.476Z,101003.81
2022-10-23T09:36:25.808Z,100997.53
2022-10-23T09:38:54.354Z,100986.19
2022-10-23T09:41:29.626Z,100989.72
2022-10-23T09:44:17.300Z,100988.56
2022-10-23T09:46:46.634Z,100983.50
2022-10-23T09:49:33.760Z,100981.22
2022-10-23T09:52:19.907Z,100976.13
2022-10-23T09:54:50.472Z,100977.72
2022-10-23T09:57:22.892Z,100974.59
2022-10-23T09:59:55.266Z,100978.16
2022-10-23T10:02:28.107Z,100969.22
2022-10-23T10:04:54.887Z,100961.44
2022-10-23T10:07:26.887Z,100956.00
2022-10-23T10:09:55.457Z,100952.88
2022-10-23T10:12:24.761Z,100956.06
2022-10-23T10:15:10.947Z,100946.31
2022-10-23T10:17:52.558Z,100939.34
2022-10-23T10:20:39.123Z,100935.84
2022-10-23T10:23:17.917Z,100938.59
2022-10-23T10:26:02.767Z,100934.75
2022-10-23T10:28:44.418Z,100919.19
2022-10-23T10:31:20.193Z,100921.97
2022-10-23T10:34:00.741Z,100910.66
2022-10-23T10:36:30.249Z,100905.25
2022-10-23T10:39:03.212Z,100903.34
2022-10-23T10:41:54.819Z,100896.34
2022-10-23T10:44:46.654Z,100891.66
2022-10-23T10:47:33.292Z,100889.78
2022-10-23T10:50:18.844Z,100868.31
2022-10-23T10:53:02.653Z,100873.41
2022-10-23T10:55:40.853Z,100865.63
2022-10-23T10:58:22.519Z,100870.00
2022-10-23T11:00:55.873Z,100870.00
2022-10-23T11:03:39.988Z,100859.09
2022-10-23T11:06:13.630Z,100866.16
2022-10-23T11:08:56.146Z,100861.50
2022-10-23T11:11:32.031Z,100852.50
2022-10-23T11:13:58.945Z,100857.19
2022-10-23T11:16:38.227Z,100859.97
2022-10-23T11:19:11.285Z,100852.53
2022-10-23T11:21:47.539Z,100847.47
2022-10-23T11:24:59.203Z,100844.00
2022-10-23T11:27:31.631Z,100826.81
2022-10-23T11:30:41.269Z,100828.00
2022-10-23T11:33:28.511Z,100826.88
2022-10-23T11:36:05.909Z,100815.53
2022-10-23T11:38:36.435Z,100806.16
2022-10-23T11:41:16.025Z,100798.69
2022-10-23T11:43:49.958Z,100776.00
2022-10-23T11:46:22.244Z,100781.88
2022-10-23T11:48:50.047Z,100789.72
2022-10-23T11:51:39.291Z,100783.06
2022-10-23T11:54:10.207Z,100775.63
2022-10-23T11:57:14.201Z,100773.66
2022-10-23T11:59:49.438Z,100786.59
2022-10-23T12:02:38.406Z,100787.38
2022-10-23T12:05:25.987Z,100788.97
2022-10-23T12:08:01.196Z,100778.75
2022-10-23T12:10:37.236Z,100770.56
2022-10-23T12:13:06.563Z,100761.53
2022-10-23T12:15:36.586Z,100764.66
2022-10-23T12:18:15.033Z,100751.75
2022-10-23T12:20:51.818Z,100734.50
2022-10-23T12:23:48.169Z,100739.97
2022-10-23T12:26:25.791Z,100737.63
2022-10-23T12:29:10.983Z,100731.38
2022-10-23T12:32:04.165Z,100735.25
2022-10-23T12:35:07.086Z,100729.75
2022-10-23T12:37:37.716Z,100725.44
2022-10-23T12:40:09.059Z,100729.78
2022-10-23T12:42:37.131Z,100713.69
2022-10-23T12:45:17.030Z,100719.97
2022-10-23T12:47:45.657Z,100698.38
2022-10-23T12:50:27.523Z,100699.94
2022-10-23T12:52:56.753Z,100694.47
2022-10-23T12:55:25.033Z,100696.03
2022-10-23T12:57:52.770Z,100689.38
2022-10-23T13:00:22.506Z,100675.66
2022-10-23T13:03:03.786Z,100670.94
2022-10-23T13:05:32.222Z,100676.78
2022-10-23T13:08:00.572Z,100678.75
2022-10-23T13:10:27.341Z,100674.44
2022-10-23T13:13:00.357Z,100671.66
2022-10-23T13:15:41.034Z,100667.75
2022-10-23T13:18:09.317Z,100670.88
2022-10-23T13:20:38.522Z,100660.31
2022-10-23T13:23:07.741Z,100652.81
2022-10-23T13:25:36.010Z,100644.59
2022-10-23T13:28:08.534Z,100626.16
2022-10-23T13:30:38.124Z,100619.47
2022-10-23T13:33:43.682Z,100614.81
2022-10-23T13:36:13.296Z,100604.97
2022-10-23T13:39:03.694Z,100594.34
2022-10-23T13:41:36.969Z,100597.03
2022-10-23T13:44:03.757Z,100595.47
2022-10-23T13:46:30.291Z,100585.28
2022-10-23T13:48:56.725Z,100583.31
2022-10-23T13:51:26.336Z,100571.53
2022-10-23T13:53:53.792Z,100577.00
2022-10-23T13:56:22.350Z,100577.78
2022-10-23T13:58:49.446Z,100580.94
2022-10-23T14:01:22.361Z,100578.19
2022-10-23T14:03:50.081Z,100574.25
2022-10-23T14:06:16.869Z,100580.16
2022-10-23T14:08:43.611Z,100585.66
2022-10-23T14:13:47.831Z,100567.22
2022-10-23T14:16:19.437Z,100569.16
2022-10-23T14:18:46.579Z,100563.66
2022-10-23T14:21:15.293Z,100562.81
2022-10-23T14:23:41.788Z,100556.50
2022-10-23T14:26:15.549Z,100565.47
2022-10-23T14:28:42.410Z,100558.38
2022-10-23T14:31:14.525Z,100547.81
2022-10-23T14:33:43.209Z,100566.28
2022-10-23T14:36:09.980Z,100561.22
2022-10-23T14:38:36.730Z,100559.69
2022-10-23T14:41:09.421Z,100563.66
2022-10-23T14:43:35.887Z,100568.78
2022-10-23T14:46:13.240Z,100558.97
2022-10-23T14:48:40.469Z,100555.09
2022-10-23T14:51:15.933Z,100562.94
2022-10-23T14:53:42.617Z,100556.28
2022-10-23T14:56:09.168Z,100550.03
2022-10-23T14:58:35.588Z,100543.00
2022-10-23T15:01:02.531Z,100547.34
2022-10-23T15:03:29.288Z,100532.84
2022-10-23T15:05:56.214Z,100538.34
2022-10-23T15:08:23.479Z,100536.41
2022-10-23T15:10:50.407Z,100527.44
2022-10-23T15:13:16.904Z,100520.00
2022-10-23T15:15:43.875Z,100522.75
2022-10-23T15:18:10.432Z,100516.13
2022-10-23T15:20:36.905Z,100521.63
2022-10-23T15:23:03.822Z,100513.78
2022-10-23T15:25:30.502Z,100511.44
2022-10-23T15:27:56.913Z,100502.81
2022-10-23T15:30:23.399Z,100504.00
2022-10-23T15:32:49.865Z,100498.16
2022-10-23T15:35:17.615Z,100486.41
2022-10-23T15:37:44.285Z,100485.63
2022-10-23T15:40:11.215Z,100482.47
2022-10-23T15:42:37.657Z,100488.78
2022-10-23T15:45:04.371Z,100484.47
2022-10-23T15:47:30.779Z,100476.66
2022-10-23T15:49:57.339Z,100485.69
2022-10-23T15:52:23.794Z,100477.09
2022-10-23T15:54:50.251Z,100471.63
2022-10-23T15:57:16.750Z,100459.91
2022-10-23T15:59:43.160Z,100452.84
2022-10-23T16:02:11.571Z,100456.75
2022-10-23T16:04:38.114Z,100444.22
2022-10-23T16:07:04.650Z,100432.13
2022-10-23T16:09:31.152Z,100432.53
2022-10-23T16:11:57.579Z,100424.69
2022-10-23T16:14:24.104Z,100434.47
2022-10-23T16:16:50.677Z,100442.34
2022-10-23T16:19:17.209Z,100441.94
2022-10-23T16:21:43.695Z,100436.06
2022-10-23T16:24:10.931Z,100440.38
2022-10-23T16:26:38.152Z,100436.06
2022-10-23T16:29:06.788Z,100439.59
2022-10-23T16:31:33.557Z,100430.59
2022-10-23T16:34:01.471Z,100432.97
2022-10-23T16:36:28.757Z,100445.06
2022-10-23T16:38:55.651Z,100423.56
2022-10-23T16:41:22.094Z,100422.00
2022-10-23T16:43:48.599Z,100429.06
2022-10-23T16:46:18.998Z,100413.03
2022-10-23T16:48:46.596Z,100414.25
2022-10-23T16:51:15.411Z,100421.69
2022-10-23T16:53:42.999Z,100427.56
2022-10-23T16:56:10.974Z,100425.59
2022-10-23T16:58:40.793Z,100438.56
2022-10-23T17:01:15.918Z,100446.00
2022-10-23T17:03:47.759Z,100446.78
2022-10-23T17:06:16.847Z,100429.16
2022-10-23T17:08:43.560Z,100426.44
2022-10-23T17:11:11.438Z,100428.81
2022-10-23T17:13:41.230Z,100432.31
2022-10-23T17:16:11.502Z,100435.84
2022-10-23T17:18:42.871Z,100420.97
2022-10-23T17:21:11.921Z,100419.41
2022-10-23T17:23:38.395Z,100424.91
2022-10-23T17:26:10.854Z,100426.88
2022-10-23T17:28:40.424Z,100422.94
2022-10-23T17:31:13.017Z,100416.31
2022-10-23T17:33:40.478Z,100427.69
2022-10-23T17:36:07.506Z,100433.53
2022-10-23T17:38:38.791Z,100430.00
2022-10-23T17:41:06.479Z,100418.28
2022-10-23T17:43:34.094Z,100418.69
2022-10-23T17:46:00.819Z,100426.50
2022-10-23T17:48:27.637Z,100422.63
2022-10-23T17:51:03.196Z,100422.63
2022-10-23T17:53:30.143Z,100417.53
2022-10-23T17:55:56.695Z,100411.63
2022-10-23T17:58:23.694Z,100402.28
2022-10-23T18:00:50.167Z,100412.03
2022-10-23T18:03:19.789Z,100415.56
2022-10-23T18:05:46.726Z,100415.13
2022-10-23T18:08:13.375Z,100398.72
2022-10-23T18:10:39.957Z,100406.53
2022-10-23T18:13:06.465Z,100405.75
2022-10-23T18:15:35.639Z,100406.13
2022-10-23T18:18:07.702Z,100403.03
2022-10-23T18:20:40.157Z,100410.88
2022-10-23T18:23:07.394Z,100410.88
2022-10-23T18:25:34.187Z,100421.41
2022-10-23T18:28:02.539Z,100413.56
2022-10-23T18:30:29.555Z,100397.50
2022-10-23T18:32:58.117Z,100386.16
2022-10-23T18:35:25.172Z,100375.19
2022-10-23T18:37:51.656Z,100375.59
2022-10-23T18:40:18.415Z,100377.97
2022-10-23T18:42:45.209Z,100375.97
2022-10-23T18:45:13.386Z,100381.81
2022-10-23T18:47:39.853Z,100367.34
2022-10-23T18:50:06.903Z,100384.56
2022-10-23T18:52:33.442Z,100377.13
2022-10-23T18:55:00.247Z,100374.38
2022-10-23T18:57:26.716Z,100379.47
2022-10-23T18:59:56.219Z,100368.88
2022-10-23T19:02:22.822Z,100372.78
2022-10-23T19:04:49.424Z,100362.22
2022-10-23T19:07:15.967Z,100361.84
2022-10-23T19:09:42.750Z,100348.13
2022-10-23T19:12:10.266Z,100373.16
2022-10-23T19:14:36.852Z,100397.84
2022-10-23T19:17:08.019Z,100442.47
2022-10-23T19:19:57.104Z,100410.34
2022-10-23T19:22:23.813Z,100398.66
2022-10-23T19:24:56.279Z,100395.94
2022-10-23T19:27:23.047Z,100388.16
2022-10-23T19:29:51.659Z,100349.81
2022-10-23T19:32:18.266Z,100385.47
2022-10-23T19:34:45.392Z,100378.84
2022-10-23T19:37:11.768Z,100370.63
2022-10-23T19:39:38.459Z,100367.13
2022-10-23T19:42:04.938Z,100369.09
2022-10-23T19:44:31.546Z,100378.50
2022-10-23T19:46:57.949Z,100392.97
2022-10-23T19:49:24.480Z,100388.69
2022-10-23T19:51:51.659Z,100395.34
2022-10-23T19:54:19.466Z,100397.66
2022-10-23T19:56:45.954Z,100400.41
2022-10-23T19:59:15.778Z,100415.28
2022-10-23T20:01:45.063Z,100426.63
2022-10-23T20:04:15.408Z,100418.81
2022-10-23T20:06:41.887Z,100419.97
2022-10-23T20:09:09.795Z,100423.13
2022-10-23T20:11:38.153Z,100422.75
2022-10-23T20:14:04.602Z,100431.34
2022-10-23T20:16:33.927Z,100445.03
2022-10-23T20:19:03.175Z,100450.50
2022-10-23T20:21:30.069Z,100452.03
2022-10-23T20:23:57.686Z,100454.00
2022-10-23T20:26:24.643Z,100464.56
2022-10-23T20:28:55.625Z,100467.69
2022-10-23T20:31:24.347Z,100463.78
2022-10-23T20:33:51.553Z,100454.81
2022-10-23T20:36:24.715Z,100461.81
2022-10-23T20:38:51.397Z,100470.81
2022-10-23T20:41:17.959Z,100473.16
2022-10-23T20:43:44.676Z,100487.97
2022-10-23T20:46:11.095Z,100489.53
2022-10-23T20:48:43.060Z,100495.78
2022-10-23T20:51:12.469Z,100498.09
2022-10-23T20:53:40.180Z,100504.31
2022-10-23T20:56:13.514Z,100487.53
2022-10-23T20:58:40.438Z,100483.22
2022-10-23T21:01:12.615Z,100491.03
2022-10-23T21:03:39.566Z,100483.19
2022-10-23T21:06:14.342Z,100487.88
2022-10-23T21:08:41.529Z,100492.56
2022-10-23T21:11:11.229Z,100523.41
2022-10-23T21:13:38.158Z,100539.03
2022-10-23T21:16:24.793Z,100503.50
2022-10-23T21:18:55.853Z,100495.66
2022-10-23T21:21:23.012Z,100494.09
2022-10-23T21:23:52.065Z,100484.31
2022-10-23T21:26:20.932Z,100480.81
2022-10-23T21:28:56.337Z,100473.00
2022-10-23T21:31:33.598Z,100471.78
2022-10-23T21:34:00.150Z,100474.91
2022-10-23T21:36:27.477Z,100484.28
2022-10-23T21:38:55.798Z,100471.03
2022-10-23T21:41:25.481Z,100475.34
2022-10-23T21:43:53.882Z,100480.03
2022-10-23T21:46:20.462Z,100488.59
2022-10-23T21:48:48.181Z,100493.31
2022-10-23T21:51:33.918Z,100497.22
2022-10-23T21:54:00.344Z,100499.97
2022-10-23T21:56:33.936Z,100489.03
2022-10-23T21:59:02.273Z,100492.19
2022-10-23T22:01:29.612Z,100500.78
2022-10-23T22:03:56.462Z,100491.00
2022-10-23T22:06:25.502Z,100514.03
2022-10-23T22:08:53.306Z,100512.91
2022-10-23T22:11:20.163Z,100485.97
2022-10-23T22:13:47.215Z,100494.94
2022-10-23T22:16:15.193Z,100486.75
2022-10-23T22:18:42.235Z,100478.53
2022-10-23T22:21:11.789Z,100473.47
2022-10-23T22:23:38.677Z,100478.13
2022-10-23T22:26:08.004Z,100485.53
2022-10-23T22:28:34.406Z,100487.50
2022-10-23T22:31:01.872Z,100478.91
2022-10-23T22:33:30.806Z,100472.63
2022-10-23T22:36:01.801Z,100478.09
2022-10-23T22:38:30.173Z,100476.97
2022-10-23T22:40:56.571Z,100481.63
2022-10-23T22:43:23.103Z,100473.06
2022-10-23T22:45:49.558Z,100468.75
2022-10-23T22:48:16.062Z,100459.78
2022-10-23T22:50:42.523Z,100461.34
2022-10-23T22:53:08.977Z,100459.75
2022-10-23T22:55:36.579Z,100461.31
2022-10-23T22:58:03.097Z,100456.63
2022-10-23T23:00:29.546Z,100449.22
2022-10-23T23:02:59.118Z,100453.50
2022-10-23T23:05:25.546Z,100454.31
2022-10-23T23:07:51.977Z,100449.63
2022-10-23T23:10:18.388Z,100439.84
2022-10-23T23:12:44.781Z,100440.22
2022-10-23T23:15:11.243Z,100434.38
2022-10-23T23:17:37.670Z,100430.09
2022-10-23T23:20:04.413Z,100421.06
2022-10-23T23:22:30.846Z,100423.06
2022-10-23T23:24:57.287Z,100423.41
2022-10-23T23:27:23.751Z,100424.19
2022-10-23T23:29:50.221Z,100422.25
2022-10-23T23:32:16.697Z,100415.25
2022-10-23T23:34:43.079Z,100412.50
2022-10-23T23:37:09.637Z,100409.78
2022-10-23T23:39:36.072Z,100412.13
2022-10-23T23:42:02.506Z,100401.59
2022-10-23T23:44:28.939Z,100411.00
2022-10-23T23:46:55.900Z,100410.59
2022-10-23T23:49:22.764Z,100409.81
2022-10-23T23:51:49.201Z,100405.13
2022-10-23T23:54:15.729Z,100405.91
2022-10-23T23:56:42.322Z,100410.97
2022-10-23T23:59:08.828Z,100403.19
